Time;durP1;ratioP1;P1;durP2;ratioP2;P2;SDS_P1;SDS_P2;PMS_P1;PMS_P2;Temp;Humidity;BMP_temperature;BMP_pressure;BME280_temperature;BME280_humidity;BME280_pressure;Samples;Min_cycle;Max_cycle;Signal;HPM_P1;HPM_P2
2023/11/09 00:01:14;;;;;;;0.30;0.20;;;0.50;99.90;;;;;;25593613;23;20012;-58
2023/11/09 00:11:16;;;;;;;1.27;0.30;;;0.40;99.90;;;;;;25593465;23;20036;-58
2023/11/09 00:21:18;;;;;;;1.10;0.13;;;0.20;99.90;;;;;;25593360;23;20005;-58
2023/11/09 00:31:19;;;;;;;0.30;0.10;;;0.20;99.90;;;;;;25593071;23;20005;-58
2023/11/09 00:41:21;;;;;;;0.20;0.10;;;0.40;99.90;;;;;;25592612;23;20021;-58
2023/11/09 00:51:23;;;;;;;1.00;0.10;;;0.70;99.90;;;;;;25592517;23;20162;-46
2023/11/09 01:01:25;;;;;;;0.10;0.10;;;1.00;99.90;;;;;;25591683;23;20499;-57
2023/11/09 01:11:27;;;;;;;0.43;0.00;;;1.00;99.90;;;;;;25591326;23;20064;-57
2023/11/09 01:21:31;;;;;;;2.05;0.28;;;0.80;99.90;;;;;;25592066;23;20005;-58
2023/11/09 01:31:34;;;;;;;1.95;0.50;;;0.80;99.90;;;;;;25590320;23;20429;-57
2023/11/09 01:41:36;;;;;;;1.23;0.60;;;0.70;99.90;;;;;;25591054;23;20024;-58
2023/11/09 01:51:40;;;;;;;0.70;0.30;;;0.70;99.90;;;;;;25591025;23;20009;-57
2023/11/09 02:01:44;;;;;;;1.20;0.38;;;0.60;99.90;;;;;;25590135;23;20021;-58
2023/11/09 02:11:47;;;;;;;0.75;0.40;;;0.50;99.90;;;;;;25592327;23;20005;-57
2023/11/09 02:21:52;;;;;;;1.33;0.57;;;0.50;99.90;;;;;;25595065;23;20013;-58
2023/11/09 02:31:54;;;;;;;1.45;0.57;;;0.60;99.90;;;;;;25595883;23;20013;-58
2023/11/09 02:41:56;;;;;;;1.60;0.43;;;0.60;99.90;;;;;;25596641;23;20017;-58
2023/11/09 02:51:58;;;;;;;2.25;0.50;;;0.70;99.90;;;;;;25596712;23;20009;-58
2023/11/09 03:02:01;;;;;;;2.45;0.50;;;0.60;99.90;;;;;;25596284;23;20036;-57
2023/11/09 03:12:06;;;;;;;4.55;0.90;;;1.10;99.90;;;;;;25594387;23;20005;-58
2023/11/09 03:22:08;;;;;;;4.57;0.68;;;2.50;99.90;;;;;;25594255;23;20075;-58
2023/11/09 03:32:10;;;;;;;2.97;0.60;;;3.10;99.90;;;;;;25593357;23;20036;-58
2023/11/09 03:42:14;;;;;;;2.83;0.50;;;3.40;99.90;;;;;;25594363;23;20036;-58
2023/11/09 03:52:16;;;;;;;2.70;0.60;;;3.00;99.90;;;;;;25593916;23;20012;-58
2023/11/09 04:02:18;;;;;;;3.13;1.13;;;3.10;99.90;;;;;;25593203;23;20009;-58
2023/11/09 04:12:20;;;;;;;2.78;0.80;;;3.10;99.90;;;;;;25593749;23;20356;-58
2023/11/09 04:22:22;;;;;;;4.43;0.90;;;2.80;99.90;;;;;;25592608;23;20013;-58
2023/11/09 04:32:23;;;;;;;3.55;0.50;;;3.40;99.90;;;;;;25592491;23;20008;-58
2023/11/09 04:42:29;;;;;;;4.18;0.80;;;3.00;99.90;;;;;;25592669;23;20013;-58
2023/11/09 04:52:31;;;;;;;1.52;0.80;;;2.50;99.90;;;;;;25591502;23;20420;-58
2023/11/09 05:12:53;;;;;;;1.40;0.60;;;2.30;99.90;;;;;;25633013;23;20032;-46
2023/11/09 05:22:56;;;;;;;3.75;0.70;;;2.10;99.90;;;;;;25589922;23;20032;-58
2023/11/09 05:32:58;;;;;;;2.25;0.75;;;2.10;99.90;;;;;;25590373;23;20005;-58
2023/11/09 05:42:59;;;;;;;2.25;0.80;;;1.90;99.90;;;;;;25592410;23;20071;-58
2023/11/09 05:53:01;;;;;;;3.03;0.88;;;1.80;99.90;;;;;;25598380;23;20075;-58
2023/11/09 06:03:03;;;;;;;2.22;0.70;;;1.70;99.90;;;;;;25600254;23;20004;-58
2023/11/09 06:13:05;;;;;;;5.07;1.27;;;1.60;99.90;;;;;;25597369;23;20009;-58
2023/11/09 06:23:07;;;;;;;2.78;0.90;;;1.50;99.90;;;;;;25596523;23;20013;-58
2023/11/09 06:33:09;;;;;;;4.20;1.33;;;1.70;99.90;;;;;;25597364;23;20372;-58
2023/11/09 06:43:12;;;;;;;6.60;1.88;;;2.10;99.90;;;;;;25595543;23;20388;-46
2023/11/09 06:53:17;;;;;;;3.30;1.08;;;2.40;99.90;;;;;;25595949;23;20013;-58
2023/11/09 07:03:19;;;;;;;3.28;0.90;;;3.10;99.90;;;;;;25596097;23;20226;-58
2023/11/09 07:13:21;;;;;;;4.55;0.70;;;3.60;99.90;;;;;;25594460;23;20005;-58
2023/11/09 07:23:24;;;;;;;4.80;0.70;;;4.00;99.90;;;;;;25595612;23;20005;-58
2023/11/09 07:33:26;;;;;;;2.40;0.60;;;4.50;99.90;;;;;;25593714;23;20012;-58
2023/11/09 07:43:31;;;;;;;2.72;0.63;;;4.80;99.90;;;;;;25594390;23;20368;-58
2023/11/09 07:53:33;;;;;;;2.80;0.70;;;4.90;99.90;;;;;;25593650;23;20009;-52
2023/11/09 08:03:36;;;;;;;2.30;0.68;;;5.10;99.90;;;;;;25593536;23;20009;-59
2023/11/09 08:13:38;;;;;;;3.00;0.90;;;5.40;99.90;;;;;;25592746;23;20009;-58
2023/11/09 08:23:41;;;;;;;3.85;0.60;;;5.40;99.90;;;;;;25592722;23;20076;-58
2023/11/09 08:33:44;;;;;;;0.93;0.35;;;5.70;99.90;;;;;;25593042;23;20005;-57
2023/11/09 08:43:48;;;;;;;2.08;0.60;;;6.00;99.90;;;;;;25592477;23;20013;-58
2023/11/09 08:53:50;;;;;;;2.97;0.80;;;6.20;99.90;;;;;;25591740;23;20005;-52
2023/11/09 09:03:53;;;;;;;5.43;0.88;;;6.30;99.90;;;;;;25592027;23;20012;-51
2023/11/09 09:13:57;;;;;;;4.50;0.50;;;7.10;99.90;;;;;;25591986;23;20063;-58
2023/11/09 09:23:59;;;;;;;1.23;0.30;;;7.60;99.90;;;;;;25598854;23;20009;-57
2023/11/09 09:34:09;;;;;;;8.50;1.20;;;8.10;99.90;;;;;;25599707;23;20012;-52
2023/11/09 09:44:12;;;;;;;2.60;0.60;;;7.00;99.90;;;;;;25622112;23;20069;-58
2023/11/09 09:54:18;;;;;;;2.55;0.90;;;6.30;99.90;;;;;;25598554;23;20005;-59
2023/11/09 10:04:20;;;;;;;3.50;0.82;;;5.90;99.90;;;;;;25598268;23;20310;-59
2023/11/09 10:14:24;;;;;;;2.75;0.60;;;5.60;99.90;;;;;;25598256;23;20498;-59
2023/11/09 10:24:28;;;;;;;4.88;0.60;;;5.60;99.90;;;;;;25597819;23;20503;-59
2023/11/09 10:34:30;;;;;;;5.60;0.90;;;5.80;99.90;;;;;;25597112;23;20004;-59
2023/11/09 10:44:32;;;;;;;2.00;0.63;;;6.30;99.90;;;;;;25596858;23;20013;-59
2023/11/09 10:54:36;;;;;;;2.90;0.82;;;7.30;99.90;;;;;;25596546;23;20005;-58
2023/11/09 11:04:40;;;;;;;2.08;0.68;;;9.60;99.90;;;;;;25595925;23;20012;-59
2023/11/09 11:14:43;;;;;;;3.05;1.17;;;9.00;99.90;;;;;;25595984;23;20008;-58
2023/11/09 11:25:28;;;;;;;3.03;0.93;;;9.30;99.90;;;;;;25595404;23;20336;-49
2023/11/09 11:35:42;;;;;;;3.20;0.80;;;8.90;99.90;;;;;;25594957;23;20012;-58
2023/11/09 11:45:47;;;;;;;3.53;0.82;;;8.50;99.90;;;;;;25610942;23;20009;-58
2023/11/09 11:56:12;;;;;;;3.20;0.90;;;9.10;99.90;;;;;;25594377;23;20063;-59
2023/11/09 12:06:22;;;;;;;5.18;0.80;;;8.60;99.90;;;;;;25635024;23;20005;-58
2023/11/09 12:16:29;;;;;;;1.30;0.50;;;7.90;99.90;;;;;;25634598;23;20009;-52
2023/11/09 12:26:34;;;;;;;3.20;0.60;;;7.90;99.90;;;;;;25592653;23;20082;-59
2023/11/09 12:36:39;;;;;;;3.10;0.68;;;7.90;99.90;;;;;;25592940;23;20009;-59
2023/11/09 12:46:41;;;;;;;1.73;0.60;;;7.90;99.90;;;;;;25603092;23;20021;-59
2023/11/09 12:56:46;;;;;;;2.15;0.60;;;7.90;99.90;;;;;;25591778;23;20036;-58
2023/11/09 13:06:54;;;;;;;4.18;1.00;;;7.50;99.90;;;;;;25590547;23;20076;-59
2023/11/09 13:16:56;;;;;;;2.83;0.80;;;7.30;99.90;;;;;;25632730;23;20005;-59
2023/11/09 13:26:58;;;;;;;1.50;0.80;;;7.30;99.90;;;;;;25591383;23;20328;-59
2023/11/09 13:37:04;;;;;;;3.20;0.93;;;7.10;99.90;;;;;;25591281;23;20005;-59
2023/11/09 13:47:08;;;;;;;1.27;0.73;;;6.80;99.90;;;;;;25602262;23;20064;-59
2023/11/09 14:07:16;;;;;;;2.38;0.82;;;6.50;99.90;;;;;;25593755;23;20348;-57
2023/11/09 14:17:18;;;;;;;3.60;0.90;;;6.40;99.90;;;;;;25598031;23;20444;-57
2023/11/09 14:27:22;;;;;;;4.35;1.58;;;5.90;99.90;;;;;;25596751;23;20310;-51
2023/11/09 14:37:24;;;;;;;2.22;1.10;;;5.70;99.90;;;;;;25595366;23;20005;-58
2023/11/09 14:47:35;;;;;;;2.10;1.02;;;5.50;99.90;;;;;;25596826;23;20017;-51
2023/11/09 14:57:39;;;;;;;3.33;1.42;;;5.30;99.90;;;;;;25636234;23;20005;-53
2023/11/09 15:07:45;;;;;;;2.42;1.40;;;5.10;99.90;;;;;;25595079;23;20012;-59
2023/11/09 15:17:48;;;;;;;2.72;1.00;;;4.90;99.90;;;;;;25636433;23;20036;-54
2023/11/09 15:27:50;;;;;;;1.77;0.30;;;4.70;99.90;;;;;;25595150;23;20005;-53
2023/11/09 15:37:54;;;;;;;0.65;0.30;;;4.50;99.90;;;;;;25594897;23;20005;-59
2023/11/09 15:47:56;;;;;;;0.90;0.20;;;4.30;99.90;;;;;;25594262;23;20343;-59
2023/11/09 15:58:02;;;;;;;0.50;0.30;;;4.10;99.90;;;;;;25596058;23;20009;-60
2023/11/09 16:08:08;;;;;;;1.95;0.20;;;3.90;99.90;;;;;;25635112;23;20075;-59
2023/11/09 16:18:10;;;;;;;0.20;0.10;;;3.70;99.90;;;;;;25634958;23;20020;-60
2023/11/09 16:28:19;;;;;;;0.77;0.20;;;3.70;99.90;;;;;;25592896;23;20035;-53
2023/11/09 16:38:22;;;;;;;0.80;0.30;;;3.50;99.90;;;;;;25634151;23;20440;-59
2023/11/09 16:48:23;;;;;;;1.95;0.30;;;3.50;99.90;;;;;;25592600;23;20352;-59
2023/11/09 16:58:26;;;;;;;0.60;0.25;;;3.40;99.90;;;;;;25591777;23;20429;-51
2023/11/09 17:08:29;;;;;;;0.82;0.30;;;3.40;99.90;;;;;;25591111;23;20021;-60
2023/11/09 17:18:31;;;;;;;0.82;0.20;;;3.40;99.90;;;;;;25591620;23;20005;-49
2023/11/09 17:28:34;;;;;;;0.98;0.45;;;3.30;99.90;;;;;;25591323;23;20009;-60
2023/11/09 17:38:35;;;;;;;2.35;0.40;;;3.10;99.90;;;;;;25593049;23;20375;-52
2023/11/09 17:48:37;;;;;;;2.40;0.30;;;3.00;99.90;;;;;;25599314;23;20459;-51
2023/11/09 17:58:41;;;;;;;1.60;0.40;;;2.90;99.90;;;;;;25597402;23;20009;-60
2023/11/09 18:08:43;;;;;;;2.28;0.47;;;2.70;99.90;;;;;;25598214;23;20006;-60
2023/11/09 18:18:45;;;;;;;1.58;0.30;;;2.60;99.90;;;;;;25598284;23;20036;-60
2023/11/09 18:28:47;;;;;;;0.75;0.22;;;2.40;99.90;;;;;;25596951;23;20060;-52
2023/11/09 18:38:49;;;;;;;1.13;0.20;;;2.30;99.90;;;;;;25596870;23;20016;-60
2023/11/09 18:48:51;;;;;;;1.00;0.40;;;2.20;99.90;;;;;;25596459;23;20005;-60
2023/11/09 18:58:54;;;;;;;1.20;0.70;;;2.10;99.90;;;;;;25596241;23;20005;-61
2023/11/09 19:08:57;;;;;;;2.40;0.60;;;2.10;99.90;;;;;;25597801;23;20005;-60
2023/11/09 19:18:59;;;;;;;1.48;0.68;;;2.30;99.90;;;;;;25596810;23;20502;-54
2023/11/09 19:29:00;;;;;;;0.93;0.60;;;2.30;99.90;;;;;;25595905;23;20444;-60
2023/11/09 19:39:03;;;;;;;2.63;0.70;;;2.30;99.90;;;;;;25597074;23;20056;-60
2023/11/09 19:49:04;;;;;;;1.30;0.90;;;2.20;99.90;;;;;;25596195;23;20360;-60
2023/11/09 19:59:08;;;;;;;1.23;0.60;;;2.30;99.90;;;;;;25595293;23;20009;-60
2023/11/09 20:09:11;;;;;;;1.27;0.70;;;2.20;99.90;;;;;;25593189;23;20060;-54
2023/11/09 20:19:13;;;;;;;3.38;0.90;;;2.30;99.90;;;;;;25594818;23;20001;-59
2023/11/09 20:29:15;;;;;;;1.05;0.65;;;2.30;99.90;;;;;;25594430;23;20004;-60
2023/11/09 20:39:20;;;;;;;1.00;0.52;;;2.40;99.90;;;;;;25594206;23;20009;-60
2023/11/09 20:49:23;;;;;;;0.95;0.40;;;2.30;99.90;;;;;;25595358;23;20013;-54
2023/11/09 20:59:25;;;;;;;0.95;0.43;;;2.40;99.90;;;;;;25591956;23;20078;-54
2023/11/09 21:09:29;;;;;;;0.85;0.38;;;2.40;99.90;;;;;;25590655;23;20009;-53
2023/11/09 21:19:31;;;;;;;0.55;0.20;;;2.40;99.90;;;;;;25605530;23;20005;-54
2023/11/09 21:29:33;;;;;;;0.47;0.30;;;2.40;99.90;;;;;;25606028;23;20001;-60
2023/11/09 21:39:39;;;;;;;1.13;0.20;;;2.50;99.90;;;;;;25606367;23;20440;-53
2023/11/09 21:49:44;;;;;;;0.73;0.30;;;2.50;99.90;;;;;;25606135;23;20013;-57
2023/11/09 21:59:46;;;;;;;0.43;0.10;;;2.70;99.90;;;;;;25605155;23;20056;-59
2023/11/09 22:09:47;;;;;;;0.10;0.00;;;2.90;99.90;;;;;;25606206;23;20012;-60
2023/11/09 22:19:49;;;;;;;0.43;0.00;;;3.20;99.90;;;;;;25604447;23;20005;-60
2023/11/09 22:29:51;;;;;;;0.05;0.00;;;3.40;99.90;;;;;;25599711;23;20005;-60
2023/11/09 22:39:53;;;;;;;1.38;0.00;;;3.50;99.90;;;;;;25598333;23;20008;-60
2023/11/09 22:49:56;;;;;;;0.00;0.00;;;3.50;99.90;;;;;;25597426;23;20028;-59
2023/11/09 22:59:58;;;;;;;0.08;0.00;;;3.60;99.90;;;;;;25598230;23;20341;-59
2023/11/09 23:10:01;;;;;;;0.00;0.00;;;3.50;99.90;;;;;;25596943;23;20005;-59
2023/11/09 23:20:03;;;;;;;0.17;0.10;;;3.50;99.90;;;;;;25597853;23;20028;-59
2023/11/09 23:30:06;;;;;;;0.10;0.00;;;3.40;99.90;;;;;;25597310;23;20009;-59
2023/11/09 23:40:10;;;;;;;0.00;0.00;;;3.30;99.90;;;;;;25595359;23;20404;-59
2023/11/09 23:50:12;;;;;;;0.00;0.00;;;2.90;99.90;;;;;;25636808;23;20005;-59
